Time;durP1;ratioP1;P1;durP2;ratioP2;P2;SDS_P1;SDS_P2;PMS_P1;PMS_P2;Temp;Humidity;BMP_temperature;BMP_pressure;BME280_temperature;BME280_humidity;BME280_pressure;Samples;Min_cycle;Max_cycle;Signal;HPM_P1;HPM_P2
2021/03/19 00:00:09;;;;;;;8.60;4.77;;;;;;;1.59;83.61;96717.88;5018198;28;20211;-68
2021/03/19 00:02:34;;;;;;;9.03;5.00;;;;;;;1.44;85.87;96723.97;5052285;28;20170;-68
2021/03/19 00:05:00;;;;;;;5.57;4.10;;;;;;;1.47;87.92;96721.03;5038970;28;20510;-68
2021/03/19 00:07:26;;;;;;;6.30;4.87;;;;;;;1.55;87.90;96724.38;5019464;28;20302;-68
2021/03/19 00:09:52;;;;;;;7.80;4.93;;;;;;;1.52;88.46;96719.53;5051506;28;20216;-68
2021/03/19 00:12:19;;;;;;;8.07;5.00;;;;;;;1.55;87.89;96714.03;5041816;28;20566;-69
2021/03/19 00:14:45;;;;;;;6.60;4.90;;;;;;;1.62;88.31;96720.09;5035089;28;20173;-69
2021/03/19 00:17:11;;;;;;;7.70;5.10;;;;;;;1.69;89.20;96715.06;5035067;28;20232;-67
2021/03/19 00:19:36;;;;;;;9.33;5.50;;;;;;;1.71;89.15;96712.31;5020924;28;20926;-67
2021/03/19 00:22:01;;;;;;;7.17;5.73;;;;;;;1.55;88.74;96714.03;5049972;28;20611;-67
2021/03/19 00:24:27;;;;;;;6.30;5.30;;;;;;;1.57;89.46;96716.44;5019551;28;20192;-67
2021/03/19 00:26:52;;;;;;;7.77;5.30;;;;;;;1.59;91.05;96714.50;5028798;28;20174;-68
2021/03/19 00:29:18;;;;;;;6.27;5.57;;;;;;;1.59;89.50;96710.13;5036189;28;20349;-67
2021/03/19 00:31:43;;;;;;;8.40;6.17;;;;;;;1.62;91.01;96712.34;5021040;28;20171;-67
2021/03/19 00:34:09;;;;;;;7.17;5.70;;;;;;;1.52;90.73;96710.97;5047365;28;20178;-67
2021/03/19 00:36:35;;;;;;;7.77;6.30;;;;;;;1.58;90.54;96708.50;5021309;28;20234;-68
2021/03/19 00:39:01;;;;;;;7.20;5.73;;;;;;;1.68;90.47;96703.09;5027198;28;20220;-67
2021/03/19 00:41:27;;;;;;;10.17;6.43;;;;;;;1.74;90.01;96702.41;5032696;28;20180;-67
2021/03/19 00:43:52;;;;;;;9.20;6.00;;;;;;;1.75;90.73;96709.19;5024785;28;20187;-68
2021/03/19 00:46:18;;;;;;;6.77;5.73;;;;;;;1.74;90.65;96705.00;5039215;28;20661;-66
2021/03/19 00:48:43;;;;;;;6.97;5.87;;;;;;;1.86;90.91;96703.63;5044496;28;20306;-68
2021/03/19 00:51:09;;;;;;;8.27;6.50;;;;;;;1.93;89.28;96703.72;5027874;28;20248;-68
2021/03/19 00:53:35;;;;;;;8.73;6.40;;;;;;;1.87;89.69;96710.41;5031623;28;20848;-68
2021/03/19 00:56:00;;;;;;;5.97;5.37;;;;;;;1.74;90.88;96704.19;5037269;28;20182;-68
2021/03/19 00:58:26;;;;;;;11.17;6.40;;;;;;;1.75;90.37;96698.88;5034805;28;20238;-67
2021/03/19 01:00:51;;;;;;;6.20;5.60;;;;;;;1.72;91.12;96699.22;5020511;28;20659;-68
2021/03/19 01:03:19;;;;;;;10.03;7.00;;;;;;;1.83;90.37;96698.81;5039525;28;20171;-67
2021/03/19 01:05:46;;;;;;;7.37;6.30;;;;;;;1.77;90.82;96698.69;5024993;28;20178;-67
2021/03/19 01:08:13;;;;;;;9.30;6.37;;;;;;;1.83;89.72;96693.66;5041054;28;20177;-67
2021/03/19 01:10:49;;;;;;;10.57;6.93;;;;;;;1.79;89.61;96694.16;5051273;28;21109;-68
2021/03/19 01:13:15;;;;;;;8.37;6.67;;;;;;;1.77;90.01;96696.94;5038270;28;20217;-67
2021/03/19 01:15:41;;;;;;;8.53;6.30;;;;;;;1.82;89.88;96697.19;5015582;28;20167;-67
2021/03/19 01:18:14;;;;;;;9.13;6.70;;;;;;;1.73;91.09;96693.06;5022600;28;20692;-67
2021/03/19 01:20:42;;;;;;;8.30;6.70;;;;;;;1.68;91.11;96692.78;5045172;28;20294;-67
2021/03/19 01:23:10;;;;;;;6.90;6.20;;;;;;;1.73;90.39;96684.53;5028618;28;20170;-68
2021/03/19 01:25:36;;;;;;;9.37;7.10;;;;;;;1.76;90.34;96682.41;5031072;28;20265;-67
2021/03/19 01:28:02;;;;;;;7.90;6.70;;;;;;;1.77;90.26;96684.00;5020492;28;20195;-67
2021/03/19 01:30:34;;;;;;;7.50;6.80;;;;;;;1.73;90.60;96682.72;5029981;28;20284;-69
2021/03/19 01:32:59;;;;;;;8.10;6.40;;;;;;;1.72;90.58;96681.16;5014685;28;20175;-67
2021/03/19 01:35:31;;;;;;;10.33;7.60;;;;;;;1.75;89.08;96677.41;5011472;28;20179;-67
2021/03/19 01:37:57;;;;;;;8.50;6.47;;;;;;;1.63;90.69;96677.00;5045899;28;20268;-67
2021/03/19 01:40:25;;;;;;;7.40;6.47;;;;;;;1.56;91.04;96683.84;5042683;28;20389;-72
2021/03/19 01:43:13;;;;;;;10.30;6.73;;;;;;;1.65;90.75;96677.63;5027155;28;20201;-68
2021/03/19 01:46:00;;;;;;;9.53;6.73;;;;;;;1.54;91.38;96676.28;5024864;28;20872;-67
2021/03/19 01:49:03;;;;;;;9.30;7.03;;;;;;;1.45;92.32;96666.97;5023247;28;20233;-67
2021/03/19 01:52:06;;;;;;;8.87;7.03;;;;;;;1.40;93.03;96668.44;5029108;28;20187;-68
2021/03/19 01:55:08;;;;;;;8.63;6.77;;;;;;;1.41;92.95;96660.53;5016657;28;20305;-67
2021/03/19 01:58:11;;;;;;;8.40;6.43;;;;;;;1.35;93.15;96661.22;5019463;28;20226;-65
2021/03/19 02:01:14;;;;;;;8.93;6.93;;;;;;;1.28;92.79;96657.75;5012514;28;20223;-66
2021/03/19 02:04:24;;;;;;;10.03;6.80;;;;;;;1.34;92.20;96643.34;5015181;28;20421;-66
2021/03/19 02:07:27;;;;;;;11.47;7.43;;;;;;;1.48;92.16;96652.91;5024240;28;20173;-66
2021/03/19 02:10:29;;;;;;;9.43;7.13;;;;;;;1.28;92.70;96644.84;5024873;28;20214;-66
2021/03/19 02:13:32;;;;;;;7.97;7.10;;;;;;;1.32;93.14;96646.09;5018016;28;20175;-66
2021/03/19 02:16:35;;;;;;;9.40;6.97;;;;;;;1.28;93.02;96641.44;5025037;28;20708;-66
2021/03/19 02:19:54;;;;;;;10.60;6.93;;;;;;;1.21;94.01;96646.50;5044942;28;20198;-67
2021/03/19 02:22:57;;;;;;;9.50;6.67;;;;;;;1.19;93.72;96635.53;4962221;28;20172;-65
2021/03/19 02:26:00;;;;;;;9.37;7.27;;;;;;;1.22;93.70;96638.59;5037584;28;20179;-65
2021/03/19 02:29:03;;;;;;;7.17;6.33;;;;;;;1.08;94.09;96634.16;5032257;28;20274;-66
2021/03/19 02:31:53;;;;;;;8.13;7.13;;;;;;;0.93;95.00;96641.00;5037172;28;20178;-66
2021/03/19 02:34:29;;;;;;;9.67;7.33;;;;;;;0.97;94.10;96644.06;5017717;28;20666;-65
2021/03/19 02:36:55;;;;;;;9.87;7.50;;;;;;;1.03;94.10;96657.09;5027857;28;20174;-66
2021/03/19 02:39:22;;;;;;;10.33;8.27;;;;;;;1.09;94.20;96653.81;5016898;28;20207;-67
2021/03/19 02:41:48;;;;;;;12.07;8.10;;;;;;;1.05;95.25;96655.16;5012985;28;20206;-68
2021/03/19 02:44:13;;;;;;;13.17;8.10;;;;;;;1.08;95.27;96657.38;5035267;28;20259;-66
2021/03/19 02:46:39;;;;;;;9.67;7.93;;;;;;;1.19;94.13;96651.81;5038897;28;20187;-69
2021/03/19 02:49:04;;;;;;;14.60;8.23;;;;;;;1.21;94.53;96651.66;5033943;28;20187;-68
2021/03/19 02:51:30;;;;;;;10.13;8.07;;;;;;;1.11;94.43;96651.06;5021124;28;20190;-66
2021/03/19 02:53:55;;;;;;;10.83;7.70;;;;;;;1.25;94.13;96650.31;5044641;28;20181;-65
2021/03/19 02:56:21;;;;;;;10.07;8.37;;;;;;;1.33;93.23;96646.91;5019947;28;20194;-65
2021/03/19 02:58:47;;;;;;;9.67;8.33;;;;;;;1.21;93.84;96649.88;5026901;28;20289;-66
2021/03/19 03:01:12;;;;;;;12.27;8.90;;;;;;;1.29;93.35;96641.25;5035229;28;20206;-67
2021/03/19 03:03:37;;;;;;;11.10;8.70;;;;;;;1.25;93.90;96643.38;5021747;28;20626;-67
2021/03/19 03:06:03;;;;;;;11.10;8.90;;;;;;;1.24;93.93;96628.88;5017720;28;20258;-66
2021/03/19 03:08:30;;;;;;;12.40;9.03;;;;;;;1.24;93.80;96628.88;5015504;28;20233;-67
2021/03/19 03:10:59;;;;;;;10.40;8.50;;;;;;;1.23;93.66;96626.44;5028844;28;20225;-66
2021/03/19 03:13:25;;;;;;;9.53;8.30;;;;;;;1.27;93.40;96626.94;5025846;28;20653;-67
2021/03/19 03:15:51;;;;;;;13.07;8.40;;;;;;;1.24;93.45;96636.63;5043845;28;20212;-67
2021/03/19 03:18:17;;;;;;;10.37;8.40;;;;;;;1.06;93.67;96630.91;5018303;28;20181;-66
2021/03/19 03:20:53;;;;;;;9.97;8.33;;;;;;;0.92;94.30;96629.09;5021418;28;20679;-67
2021/03/19 03:23:21;;;;;;;12.40;8.53;;;;;;;1.05;93.63;96637.06;5029384;28;20745;-66
2021/03/19 03:25:46;;;;;;;9.43;8.43;;;;;;;1.00;93.95;96636.78;5012176;28;20187;-67
2021/03/19 03:28:12;;;;;;;9.77;8.47;;;;;;;0.99;93.94;96632.59;5014508;28;20206;-67
2021/03/19 03:30:49;;;;;;;11.67;8.80;;;;;;;1.13;93.06;96631.03;5005320;28;20215;-67
2021/03/19 03:33:15;;;;;;;11.07;8.83;;;;;;;1.00;93.76;96629.06;5017838;28;20210;-66
2021/03/19 03:35:41;;;;;;;15.43;9.70;;;;;;;0.92;94.43;96625.69;5046697;28;20811;-67
2021/03/19 03:38:13;;;;;;;9.80;8.57;;;;;;;0.86;94.55;96631.53;5017903;28;20190;-66
2021/03/19 03:40:44;;;;;;;12.30;8.47;;;;;;;0.91;94.66;96634.41;5048438;28;20241;-66
2021/03/19 03:43:14;;;;;;;11.07;8.80;;;;;;;0.96;93.71;96630.34;5023932;28;20522;-66
2021/03/19 03:45:40;;;;;;;10.90;9.27;;;;;;;0.98;94.56;96630.19;5013114;28;20573;-66
2021/03/19 03:48:06;;;;;;;16.87;9.80;;;;;;;0.93;94.02;96629.88;5042564;28;20720;-67
2021/03/19 03:50:32;;;;;;;11.57;9.20;;;;;;;0.88;93.73;96627.03;5012254;28;20258;-66
2021/03/19 03:52:57;;;;;;;12.83;9.30;;;;;;;0.99;93.86;96631.78;5012474;28;20171;-67
2021/03/19 03:55:25;;;;;;;11.40;9.33;;;;;;;1.12;93.82;96630.25;5022073;28;20186;-64
2021/03/19 03:57:51;;;;;;;12.87;9.43;;;;;;;1.16;93.66;96634.09;5012547;28;20605;-65
2021/03/19 04:00:21;;;;;;;12.73;9.90;;;;;;;1.37;92.12;96633.47;5028441;28;20232;-66
2021/03/19 04:02:47;;;;;;;13.33;9.73;;;;;;;1.13;92.92;96626.69;5031491;28;20207;-65
2021/03/19 04:05:22;;;;;;;10.83;9.73;;;;;;;1.10;93.01;96629.63;5042915;28;20213;-66
2021/03/19 04:07:48;;;;;;;12.20;9.80;;;;;;;1.22;93.49;96632.63;5042723;28;20202;-67
2021/03/19 04:10:14;;;;;;;10.77;9.60;;;;;;;1.30;92.42;96636.91;5032475;28;20229;-66
2021/03/19 04:12:40;;;;;;;15.17;10.10;;;;;;;1.30;92.29;96639.47;5052387;28;20182;-66
2021/03/19 04:15:08;;;;;;;11.17;9.20;;;;;;;1.22;93.33;96635.19;5022836;28;20186;-66
2021/03/19 04:17:34;;;;;;;10.83;9.10;;;;;;;1.23;93.04;96632.41;5042495;28;20195;-65
2021/03/19 04:20:01;;;;;;;12.07;9.27;;;;;;;1.29;92.51;96637.88;5030770;28;20225;-65
2021/03/19 04:22:27;;;;;;;10.07;8.63;;;;;;;1.17;92.64;96635.69;5029762;28;20186;-65
2021/03/19 04:24:55;;;;;;;13.53;9.33;;;;;;;1.15;92.66;96635.06;5003534;28;20261;-66
2021/03/19 04:27:24;;;;;;;11.03;9.93;;;;;;;1.22;93.28;96637.78;5029074;28;20199;-66
2021/03/19 04:29:52;;;;;;;13.47;9.17;;;;;;;1.28;92.16;96628.53;5026679;28;20285;-66
2021/03/19 04:32:18;;;;;;;13.50;10.00;;;;;;;1.29;91.75;96636.09;5052966;28;20178;-66
2021/03/19 04:34:43;;;;;;;10.23;9.13;;;;;;;1.20;92.25;96626.81;5025144;28;20198;-66
2021/03/19 04:37:10;;;;;;;11.73;9.37;;;;;;;1.31;91.53;96628.19;5046382;28;20189;-66
2021/03/19 04:39:43;;;;;;;12.83;9.60;;;;;;;1.26;91.99;96628.72;5014206;28;20211;-67
2021/03/19 04:42:09;;;;;;;10.80;9.43;;;;;;;1.15;93.16;96624.75;5036454;28;20178;-65
2021/03/19 04:44:39;;;;;;;11.50;9.13;;;;;;;1.14;92.27;96619.75;5023716;28;20273;-66
2021/03/19 04:47:05;;;;;;;10.80;9.30;;;;;;;1.16;92.02;96630.72;5047045;28;20618;-66
2021/03/19 04:49:32;;;;;;;10.93;9.20;;;;;;;1.28;91.93;96628.53;5024012;28;20248;-66
2021/03/19 04:51:58;;;;;;;13.27;9.57;;;;;;;1.31;91.57;96635.94;5030274;28;20191;-66
2021/03/19 04:54:30;;;;;;;12.53;9.33;;;;;;;1.21;91.44;96633.59;5043310;28;20189;-64
2021/03/19 04:56:56;;;;;;;11.17;9.30;;;;;;;1.27;90.79;96634.69;5045955;28;20188;-66
2021/03/19 04:59:22;;;;;;;11.87;9.90;;;;;;;1.32;91.06;96634.97;5024727;28;20322;-66
2021/03/19 05:01:54;;;;;;;11.90;9.23;;;;;;;1.29;91.02;96635.28;5024373;28;20193;-66
2021/03/19 05:04:21;;;;;;;13.33;9.17;;;;;;;1.31;90.80;96639.31;5042595;28;20178;-67
2021/03/19 05:06:48;;;;;;;11.00;9.30;;;;;;;1.29;90.11;96637.88;5001465;28;20179;-66
2021/03/19 05:09:14;;;;;;;10.77;9.17;;;;;;;1.36;90.48;96637.03;5041937;28;20166;-67
2021/03/19 05:11:39;;;;;;;10.63;9.53;;;;;;;1.46;90.17;96641.94;5032940;28;20245;-66
2021/03/19 05:14:05;;;;;;;10.77;9.07;;;;;;;1.60;90.22;96636.84;5040272;28;20174;-66
2021/03/19 05:16:30;;;;;;;12.33;10.20;;;;;;;1.47;90.28;96643.56;5018728;28;20210;-67
2021/03/19 05:18:56;;;;;;;12.60;10.57;;;;;;;1.42;90.47;96640.69;5042050;28;20670;-68
2021/03/19 05:21:21;;;;;;;13.97;10.93;;;;;;;1.41;90.49;96644.25;5018896;28;20208;-66
2021/03/19 05:23:47;;;;;;;13.00;11.10;;;;;;;1.51;91.09;96643.03;5028800;28;20186;-67
2021/03/19 05:26:13;;;;;;;11.60;10.40;;;;;;;1.40;91.23;96645.22;5025019;28;20176;-66
2021/03/19 05:28:39;;;;;;;12.23;9.77;;;;;;;1.35;90.91;96639.75;5038411;28;20174;-66
2021/03/19 05:31:05;;;;;;;12.43;10.77;;;;;;;1.35;92.10;96642.34;5051801;28;20566;-66
2021/03/19 05:33:50;;;;;;;13.63;10.27;;;;;;;1.41;91.32;96642.47;5028080;28;20187;-67
2021/03/19 05:36:19;;;;;;;11.83;10.27;;;;;;;1.29;92.06;96643.84;5031654;28;20198;-66
2021/03/19 05:38:44;;;;;;;12.97;10.57;;;;;;;1.27;92.24;96639.84;5049819;28;20237;-66
2021/03/19 05:41:11;;;;;;;12.20;10.73;;;;;;;1.25;92.52;96642.59;5030795;28;20238;-66
2021/03/19 05:43:47;;;;;;;14.30;10.90;;;;;;;1.34;92.10;96635.59;5032492;28;20258;-65
2021/03/19 05:46:16;;;;;;;15.67;11.03;;;;;;;1.35;92.11;96639.75;5031721;28;20247;-67
2021/03/19 05:48:50;;;;;;;12.20;9.93;;;;;;;1.39;91.68;96647.00;5031172;28;20262;-65
2021/03/19 05:51:30;;;;;;;13.33;10.60;;;;;;;1.34;91.76;96651.09;5050845;28;20639;-66
2021/03/19 05:54:01;;;;;;;12.73;10.53;;;;;;;1.36;91.83;96651.69;5040632;28;20202;-64
2021/03/19 05:56:32;;;;;;;15.23;10.97;;;;;;;1.50;91.66;96662.09;5029964;28;20190;-64
2021/03/19 05:58:59;;;;;;;13.50;10.27;;;;;;;1.52;91.49;96659.31;5026385;28;20238;-66
2021/03/19 06:01:25;;;;;;;12.17;10.33;;;;;;;1.72;89.83;96665.66;5032912;28;20622;-65
2021/03/19 06:03:50;;;;;;;14.10;10.90;;;;;;;1.61;90.18;96671.22;5032375;28;20266;-66
2021/03/19 06:06:17;;;;;;;13.10;10.10;;;;;;;1.69;89.10;96676.31;5047175;28;20182;-65
2021/03/19 06:08:45;;;;;;;10.80;9.70;;;;;;;1.38;90.17;96678.97;5015842;28;20191;-65
2021/03/19 06:11:19;;;;;;;14.50;10.63;;;;;;;1.43;90.61;96676.69;5048349;28;20623;-66
2021/03/19 06:13:51;;;;;;;12.83;11.47;;;;;;;1.49;90.27;96676.00;5035069;28;20256;-66
2021/03/19 06:16:28;;;;;;;12.97;10.57;;;;;;;1.53;90.96;96684.19;5043657;28;20183;-66
2021/03/19 06:18:56;;;;;;;12.53;10.63;;;;;;;1.61;90.63;96686.72;5045317;28;20194;-66
2021/03/19 06:21:30;;;;;;;13.03;10.90;;;;;;;1.59;90.05;96684.31;5034982;28;20612;-64
2021/03/19 06:24:17;;;;;;;11.53;9.90;;;;;;;1.30;91.35;96688.53;5017998;28;20571;-65
2021/03/19 06:26:43;;;;;;;13.67;9.93;;;;;;;1.77;89.44;96690.94;5033186;28;20538;-65
2021/03/19 06:29:32;;;;;;;12.30;9.57;;;;;;;1.82;88.11;96693.81;5032271;28;20186;-68
2021/03/19 06:32:19;;;;;;;14.20;9.43;;;;;;;1.68;87.96;96695.34;5017526;28;20170;-63
2021/03/19 06:35:10;;;;;;;11.17;9.27;;;;;;;1.76;88.99;96695.31;5031300;28;20659;-62
2021/03/19 06:37:48;;;;;;;10.60;9.50;;;;;;;1.81;89.63;96693.00;5049883;28;20169;-64
2021/03/19 06:40:32;;;;;;;13.33;10.40;;;;;;;1.84;89.18;96702.22;5032129;28;20202;-64
2021/03/19 06:43:21;;;;;;;13.77;10.67;;;;;;;1.67;89.63;96694.56;5046727;28;20248;-64
2021/03/19 06:45:49;;;;;;;13.17;11.67;;;;;;;1.40;91.32;96702.00;5032163;28;20218;-64
2021/03/19 06:48:37;;;;;;;14.17;11.23;;;;;;;1.27;94.14;96699.22;5032285;28;20190;-63
2021/03/19 06:51:09;;;;;;;16.13;11.17;;;;;;;1.33;93.65;96690.78;5034220;28;20214;-63
2021/03/19 06:53:35;;;;;;;14.70;11.10;;;;;;;1.19;94.83;96693.09;5035493;28;20186;-64
2021/03/19 06:56:21;;;;;;;13.90;11.30;;;;;;;1.35;94.70;96699.94;5041295;28;20551;-64
2021/03/19 06:58:48;;;;;;;16.23;12.07;;;;;;;1.28;95.39;96693.06;5041695;28;20742;-67
2021/03/19 07:01:23;;;;;;;16.03;12.00;;;;;;;1.44;94.76;96691.19;5024482;28;20213;-64
2021/03/19 07:04:06;;;;;;;16.97;11.90;;;;;;;1.50;93.99;96695.69;5042713;28;20379;-65
2021/03/19 07:07:03;;;;;;;16.47;13.10;;;;;;;1.33;94.62;96694.19;5031991;28;20186;-63
2021/03/19 07:09:38;;;;;;;14.87;12.30;;;;;;;1.31;96.15;96697.88;5029411;28;20256;-63
2021/03/19 07:12:41;;;;;;;16.57;13.20;;;;;;;1.47;95.38;96696.00;5027365;28;20628;-63
2021/03/19 07:15:20;;;;;;;17.33;12.90;;;;;;;1.32;96.01;96697.72;4942966;29;20196;-64
2021/03/19 07:18:03;;;;;;;16.70;13.33;;;;;;;1.10;98.01;96703.66;5027927;28;20228;-63
2021/03/19 07:20:59;;;;;;;21.30;14.33;;;;;;;1.30;97.30;96697.06;5047559;28;20222;-64
2021/03/19 07:23:37;;;;;;;18.47;14.93;;;;;;;1.36;98.30;96708.50;5036812;28;20706;-66
2021/03/19 07:26:30;;;;;;;18.37;14.90;;;;;;;1.60;98.60;96709.16;5025538;28;20183;-66
2021/03/19 07:29:19;;;;;;;19.80;15.77;;;;;;;1.45;97.06;96713.44;5017709;28;20556;-67
2021/03/19 07:31:47;;;;;;;19.47;15.07;;;;;;;1.43;96.70;96710.25;5024431;28;20207;-67
2021/03/19 07:34:32;;;;;;;19.77;15.77;;;;;;;1.38;97.35;96719.47;5049004;28;20524;-66
2021/03/19 07:37:15;;;;;;;19.77;14.63;;;;;;;1.54;97.63;96716.78;5045646;28;20175;-67
2021/03/19 07:40:15;;;;;;;19.20;15.13;;;;;;;1.64;96.60;96725.09;5039025;28;20234;-66
2021/03/19 07:43:28;;;;;;;20.37;14.93;;;;;;;1.63;97.39;96728.66;5053108;28;20178;-67
2021/03/19 07:45:56;;;;;;;19.30;14.33;;;;;;;1.38;95.99;96719.47;5016275;28;20759;-67
2021/03/19 07:48:48;;;;;;;19.37;14.73;;;;;;;1.38;97.59;96724.63;5051414;28;20195;-67
2021/03/19 07:51:33;;;;;;;18.37;14.57;;;;;;;1.41;97.41;96722.50;5016348;28;20262;-67
2021/03/19 07:54:11;;;;;;;19.53;14.93;;;;;;;1.68;94.95;96724.59;5042755;28;20185;-67
2021/03/19 07:56:55;;;;;;;17.80;14.80;;;;;;;1.64;96.63;96736.25;5039291;28;20228;-66
2021/03/19 08:00:03;;;;;;;19.93;14.60;;;;;;;1.61;95.54;96730.63;5035142;28;20253;-67
2021/03/19 08:02:55;;;;;;;18.83;15.17;;;;;;;2.00;95.01;96722.75;5047652;28;20198;-66
2021/03/19 08:05:26;;;;;;;19.27;14.40;;;;;;;1.72;93.54;96730.22;5041785;28;20556;-69
2021/03/19 08:08:00;;;;;;;20.87;15.90;;;;;;;1.60;94.72;96735.00;5046294;28;20244;-67
2021/03/19 08:10:32;;;;;;;22.13;15.50;;;;;;;1.49;97.26;96734.56;5047731;28;20268;-66
2021/03/19 08:13:31;;;;;;;17.77;15.27;;;;;;;1.82;96.79;96735.16;5046317;28;20186;-66
2021/03/19 08:16:10;;;;;;;17.57;14.23;;;;;;;2.16;95.12;96732.13;5039156;28;20193;-66
2021/03/19 08:18:56;;;;;;;18.17;14.43;;;;;;;2.25;93.98;96739.63;5030092;28;20222;-66
2021/03/19 08:21:37;;;;;;;16.60;12.77;;;;;;;1.65;95.49;96740.44;5036265;28;20209;-67
2021/03/19 08:24:34;;;;;;;16.57;13.30;;;;;;;1.90;96.04;96733.28;5045262;28;20174;-66
2021/03/19 08:27:12;;;;;;;14.70;11.90;;;;;;;2.23;94.72;96741.56;5047218;28;20209;-66
2021/03/19 08:30:01;;;;;;;13.00;10.53;;;;;;;2.09;93.03;96744.94;5033409;28;20583;-66
2021/03/19 08:32:36;;;;;;;15.53;11.77;;;;;;;1.84;94.97;96743.53;5047600;28;20174;-69
2021/03/19 08:35:05;;;;;;;13.47;11.53;;;;;;;1.73;96.03;96746.53;5050917;28;20178;-68
2021/03/19 08:38:08;;;;;;;14.67;11.97;;;;;;;1.43;96.74;96743.00;5033295;28;20186;-66
2021/03/19 08:40:58;;;;;;;16.47;13.33;;;;;;;1.17;98.25;96751.84;5033035;28;20279;-68
2021/03/19 08:43:39;;;;;;;17.73;14.60;;;;;;;1.35;99.36;96751.59;5018402;28;20662;-68
2021/03/19 08:46:16;;;;;;;17.90;14.40;;;;;;;1.25;99.29;96756.16;5040859;28;20551;-66
2021/03/19 08:49:06;;;;;;;19.30;13.80;;;;;;;1.10;100.00;96757.84;5038735;28;20193;-66
2021/03/19 08:51:32;;;;;;;20.50;15.97;;;;;;;1.08;100.00;96758.00;5045892;28;20185;-67
2021/03/19 08:54:12;;;;;;;19.67;15.00;;;;;;;1.21;100.00;96771.19;5044766;28;20182;-67
2021/03/19 08:56:47;;;;;;;18.73;14.50;;;;;;;1.34;100.00;96762.09;5042817;28;20186;-67
2021/03/19 08:59:31;;;;;;;19.00;14.40;;;;;;;1.48;100.00;96761.38;4993519;28;20683;-67
2021/03/19 09:02:16;;;;;;;16.70;13.33;;;;;;;1.42;100.00;96769.78;5012419;28;20194;-67
2021/03/19 09:04:57;;;;;;;18.03;13.13;;;;;;;1.28;100.00;96773.91;4962464;28;20199;-67
2021/03/19 09:07:38;;;;;;;20.03;14.13;;;;;;;1.55;100.00;96770.06;5012869;28;20615;-67
2021/03/19 09:10:12;;;;;;;20.20;14.60;;;;;;;1.35;100.00;96784.34;4995338;28;20198;-67
2021/03/19 09:13:11;;;;;;;19.40;14.83;;;;;;;1.41;100.00;96781.09;5011996;28;20223;-67
2021/03/19 09:15:43;;;;;;;20.67;14.97;;;;;;;1.46;100.00;96776.22;4974455;28;20246;-66
2021/03/19 09:18:41;;;;;;;19.10;14.27;;;;;;;1.05;100.00;96779.00;5012673;28;20182;-67
2021/03/19 09:21:27;;;;;;;19.37;14.93;;;;;;;1.20;100.00;96787.66;5011068;28;20309;-66
2021/03/19 09:24:00;;;;;;;19.47;13.90;;;;;;;1.04;100.00;96786.91;5010895;28;20458;-67
2021/03/19 09:26:36;;;;;;;18.97;13.50;;;;;;;1.07;100.00;96787.38;5007198;28;20180;-66
2021/03/19 09:29:21;;;;;;;20.90;14.80;;;;;;;1.07;100.00;96792.53;4993854;28;20175;-67
2021/03/19 09:31:52;;;;;;;18.20;13.73;;;;;;;1.09;100.00;96789.78;5006427;28;20557;-67
2021/03/19 09:34:43;;;;;;;17.80;13.27;;;;;;;1.16;100.00;96799.28;5012195;28;20183;-67
2021/03/19 09:37:37;;;;;;;17.63;13.47;;;;;;;1.25;100.00;96800.03;4994861;28;20203;-66
2021/03/19 09:40:06;;;;;;;18.37;14.03;;;;;;;1.28;100.00;96796.34;4994801;28;20278;-67
2021/03/19 09:42:31;;;;;;;18.27;13.63;;;;;;;1.33;100.00;96801.78;4999332;28;20179;-66
2021/03/19 09:44:59;;;;;;;17.10;13.53;;;;;;;1.20;100.00;96797.16;5011870;28;20693;-67
2021/03/19 09:47:42;;;;;;;18.90;14.37;;;;;;;1.29;100.00;96806.47;5013209;28;20725;-67
2021/03/19 09:50:27;;;;;;;18.70;13.67;;;;;;;1.24;100.00;96804.41;5017373;28;20214;-67
2021/03/19 09:53:05;;;;;;;16.03;12.20;;;;;;;1.31;100.00;96809.69;5009114;28;20285;-66
2021/03/19 09:55:41;;;;;;;15.13;11.13;;;;;;;1.27;98.77;96813.59;5012710;28;20274;-66
2021/03/19 09:58:38;;;;;;;15.00;11.23;;;;;;;1.42;96.92;96806.75;5016180;28;20253;-67
2021/03/19 10:01:25;;;;;;;15.47;11.60;;;;;;;1.46;96.60;96812.38;4994730;28;20256;-67
2021/03/19 10:04:06;;;;;;;15.03;12.03;;;;;;;1.60;97.57;96809.88;5013244;28;20230;-67
2021/03/19 10:06:33;;;;;;;14.33;11.03;;;;;;;1.58;96.02;96814.41;5023336;28;20249;-65
2021/03/19 10:09:09;;;;;;;14.80;11.40;;;;;;;1.80;95.52;96824.94;5039621;28;20496;-67
2021/03/19 10:11:48;;;;;;;14.40;11.53;;;;;;;1.70;93.99;96820.00;5025994;28;20223;-68
2021/03/19 10:14:36;;;;;;;14.50;11.70;;;;;;;1.59;96.29;96828.13;5028429;28;20181;-66
2021/03/19 10:17:16;;;;;;;13.80;10.77;;;;;;;1.79;95.05;96823.31;5028846;28;20171;-66
2021/03/19 10:19:45;;;;;;;13.03;10.43;;;;;;;1.97;93.50;96823.88;5030554;28;20255;-67
2021/03/19 10:22:40;;;;;;;12.23;10.10;;;;;;;1.99;91.45;96814.16;5035418;28;20222;-66
2021/03/19 10:25:33;;;;;;;9.53;8.37;;;;;;;2.15;88.86;96824.41;5026046;28;20174;-67
2021/03/19 10:28:17;;;;;;;12.40;8.93;;;;;;;2.25;88.97;96824.97;5015327;28;20200;-67
2021/03/19 10:30:47;;;;;;;18.97;9.47;;;;;;;2.18;87.95;96828.41;5029904;28;20214;-67
2021/03/19 10:33:16;;;;;;;17.40;8.27;;;;;;;2.44;87.10;96821.91;5020554;28;20194;-66
2021/03/19 10:35:52;;;;;;;17.70;9.23;;;;;;;2.65;86.03;96823.00;5025884;28;20610;-67
2021/03/19 10:38:35;;;;;;;29.27;10.30;;;;;;;2.72;84.90;96831.69;5026215;28;20178;-66
2021/03/19 10:41:32;;;;;;;9.30;8.10;;;;;;;2.95;83.50;96819.50;5024240;28;20222;-66
2021/03/19 10:44:09;;;;;;;11.87;8.83;;;;;;;3.26;83.73;96825.28;5002856;28;20198;-67
2021/03/19 10:46:39;;;;;;;11.57;7.77;;;;;;;2.90;82.99;96826.94;5023681;28;20177;-68
2021/03/19 10:49:35;;;;;;;11.03;8.63;;;;;;;2.76;83.69;96832.94;5034314;28;20205;-67
2021/03/19 10:52:08;;;;;;;7.93;6.17;;;;;;;2.65;81.27;96829.00;5006896;28;20345;-66
2021/03/19 10:54:40;;;;;;;10.03;7.67;;;;;;;2.67;84.70;96824.44;5030172;28;20186;-68
2021/03/19 10:57:37;;;;;;;9.47;8.47;;;;;;;2.43;87.74;96822.88;5048704;28;20193;-67
2021/03/19 11:00:40;;;;;;;8.77;7.50;;;;;;;2.50;89.11;96826.38;5035899;28;20215;-67
2021/03/19 11:03:07;;;;;;;8.33;7.40;;;;;;;2.30;88.58;96825.25;5039550;28;20181;-67
2021/03/19 11:06:00;;;;;;;8.73;7.73;;;;;;;2.08;90.44;96828.63;5018445;28;20187;-67
2021/03/19 11:08:27;;;;;;;10.57;7.90;;;;;;;1.82;92.19;96833.34;5033920;28;20175;-67
2021/03/19 11:10:53;;;;;;;9.23;7.70;;;;;;;1.52;93.67;96834.94;5038488;28;20198;-67
2021/03/19 11:13:27;;;;;;;9.03;7.27;;;;;;;1.27;95.90;96834.25;5006802;28;20186;-67
2021/03/19 11:15:59;;;;;;;8.93;7.23;;;;;;;1.41;95.55;96836.13;5014899;28;20224;-68
2021/03/19 11:18:26;;;;;;;7.80;7.00;;;;;;;1.40;94.79;96841.44;5034047;28;20305;-68
2021/03/19 11:21:03;;;;;;;7.30;6.40;;;;;;;1.36;93.42;96845.34;5038521;28;20201;-68
2021/03/19 11:23:36;;;;;;;6.80;6.10;;;;;;;1.34;93.80;96832.59;5055187;28;20170;-67
2021/03/19 11:26:28;;;;;;;6.63;5.93;;;;;;;1.50;94.08;96840.28;5039495;28;20170;-67
2021/03/19 11:29:16;;;;;;;9.47;6.40;;;;;;;1.62;93.92;96840.69;5027846;28;20444;-68
2021/03/19 11:32:27;;;;;;;6.67;5.23;;;;;;;1.55;91.40;96842.38;5037693;28;20327;-67
2021/03/19 11:34:56;;;;;;;5.90;5.13;;;;;;;1.54;90.74;96844.13;5019843;28;20175;-68
2021/03/19 11:37:24;;;;;;;5.90;5.30;;;;;;;1.49;91.40;96849.00;5023021;28;20219;-67
2021/03/19 11:39:49;;;;;;;5.83;5.23;;;;;;;1.44;91.07;96846.13;5026924;28;20225;-67
2021/03/19 11:42:17;;;;;;;5.33;4.83;;;;;;;1.41;91.97;96856.78;5032681;28;20539;-67
2021/03/19 11:44:47;;;;;;;5.70;5.10;;;;;;;1.48;91.20;96859.50;5025953;28;20644;-66
2021/03/19 11:47:18;;;;;;;6.30;5.70;;;;;;;1.38;90.59;96864.06;5029601;28;20258;-67
2021/03/19 11:49:45;;;;;;;5.37;4.87;;;;;;;1.47;90.04;96871.59;5040828;28;20201;-67
2021/03/19 11:52:13;;;;;;;6.17;5.57;;;;;;;1.50;90.62;96870.47;5014791;28;20175;-67
2021/03/19 11:54:38;;;;;;;5.90;5.27;;;;;;;1.50;89.79;96878.22;5014428;28;20604;-68
2021/03/19 11:57:06;;;;;;;6.90;6.00;;;;;;;1.43;89.61;96890.19;5019280;28;20210;-67
2021/03/19 11:59:31;;;;;;;8.07;6.40;;;;;;;1.46;89.18;96879.50;5033501;28;20217;-67
2021/03/19 12:01:59;;;;;;;7.43;6.63;;;;;;;1.54;88.79;96892.41;5017372;28;20197;-67
2021/03/19 12:04:25;;;;;;;8.53;6.70;;;;;;;1.51;87.20;96875.44;5041553;28;20224;-66
2021/03/19 12:06:51;;;;;;;7.50;6.57;;;;;;;1.52;87.74;96887.41;5020680;28;20179;-67
2021/03/19 12:09:17;;;;;;;6.80;6.10;;;;;;;1.64;86.34;96887.84;5041706;28;20168;-66